createdAt,value
2023-01-10T00:04:38.239Z,1.90
2023-01-10T00:09:40.613Z,2.00
2023-01-10T00:14:42.801Z,2.47
2023-01-10T00:19:45.142Z,1.93
2023-01-10T00:24:47.447Z,1.63
2023-01-10T00:29:54.115Z,2.10
2023-01-10T00:34:56.422Z,1.80
2023-01-10T00:39:59.044Z,1.50
2023-01-10T00:45:01.427Z,1.27
2023-01-10T00:50:08.826Z,1.10
2023-01-10T00:55:11.226Z,1.20
2023-01-10T01:00:14.081Z,1.73
2023-01-10T01:05:16.569Z,1.70
2023-01-10T01:10:29.039Z,2.00
2023-01-10T01:15:31.439Z,2.30
2023-01-10T01:20:34.149Z,2.17
2023-01-10T01:25:36.500Z,1.80
2023-01-10T01:30:39.057Z,2.10
2023-01-10T01:35:46.450Z,1.63
2023-01-10T01:40:48.735Z,1.93
2023-01-10T01:45:51.628Z,2.00
2023-01-10T01:51:29.573Z,2.13
2023-01-10T01:56:45.330Z,2.40
2023-01-10T02:01:52.661Z,2.00
2023-01-10T02:06:57.579Z,1.50
2023-01-10T02:12:00.146Z,1.57
2023-01-10T02:17:02.526Z,1.50
2023-01-10T02:22:30.963Z,1.90
2023-01-10T02:28:28.310Z,1.40
2023-01-10T02:33:40.957Z,1.60
2023-01-10T02:39:05.307Z,1.83
2023-01-10T02:44:34.506Z,1.40
2023-01-10T02:49:49.105Z,1.50
2023-01-10T02:54:59.044Z,1.50
2023-01-10T03:00:09.125Z,1.67
2023-01-10T03:05:49.369Z,1.70
2023-01-10T03:11:02.933Z,1.37
2023-01-10T03:16:09.794Z,1.40
2023-01-10T03:21:13.549Z,1.47
2023-01-10T03:26:22.948Z,1.70
2023-01-10T03:31:36.203Z,1.53
2023-01-10T03:37:03.384Z,1.83
2023-01-10T03:42:24.989Z,1.80
2023-01-10T03:47:45.637Z,2.27
2023-01-10T03:52:49.063Z,1.93
2023-01-10T03:57:51.427Z,1.53
2023-01-10T04:02:53.731Z,1.73
2023-01-10T04:07:56.088Z,1.40
2023-01-10T04:13:02.664Z,1.67
2023-01-10T04:18:05.046Z,1.47
2023-01-10T04:23:07.321Z,1.77
2023-01-10T04:28:09.587Z,1.30
2023-01-10T04:33:12.708Z,2.03
2023-01-10T04:38:15.910Z,1.43
2023-01-10T04:43:18.138Z,3.30
2023-01-10T04:48:20.851Z,1.33
2023-01-10T04:53:23.471Z,1.67
2023-01-10T04:58:26.007Z,1.80
2023-01-10T05:03:28.254Z,1.83
2023-01-10T05:08:30.687Z,1.80
2023-01-10T05:13:32.947Z,1.63
2023-01-10T05:18:35.433Z,1.60
2023-01-10T05:23:38.722Z,2.00
2023-01-10T05:34:01.977Z,1.70
2023-01-10T05:39:04.494Z,1.87
2023-01-10T05:44:08.070Z,2.00
2023-01-10T05:49:10.412Z,1.83
2023-01-10T05:54:12.765Z,3.13
2023-01-10T05:59:27.585Z,2.03
2023-01-10T06:04:30.328Z,2.10
2023-01-10T06:09:32.781Z,1.97
2023-01-10T06:14:35.060Z,2.17
2023-01-10T06:19:37.722Z,1.90
2023-01-10T06:24:39.949Z,1.90
2023-01-10T06:29:42.423Z,1.87
2023-01-10T06:34:44.805Z,1.93
2023-01-10T06:39:47.300Z,1.80
2023-01-10T06:44:49.684Z,1.90
2023-01-10T06:49:52.064Z,2.00
2023-01-10T06:54:54.609Z,2.10
2023-01-10T06:59:56.933Z,1.80
2023-01-10T07:04:59.290Z,2.50
2023-01-10T07:10:01.732Z,2.80
2023-01-10T07:15:05.292Z,2.03
2023-01-10T07:20:08.777Z,2.00
2023-01-10T07:25:11.507Z,1.63
2023-01-10T07:30:14.089Z,2.80
2023-01-10T07:35:16.464Z,2.00
2023-01-10T07:40:19.342Z,2.33
2023-01-10T07:45:21.838Z,2.33
2023-01-10T07:50:24.182Z,1.87
2023-01-10T07:55:27.590Z,2.67
2023-01-10T08:00:29.864Z,2.43
2023-01-10T08:05:32.511Z,3.00
2023-01-10T08:10:36.099Z,2.10
2023-01-10T08:15:38.510Z,2.90
2023-01-10T08:20:41.735Z,2.90
2023-01-10T08:25:44.372Z,2.67
2023-01-10T08:30:49.015Z,2.90
2023-01-10T08:35:53.001Z,2.00
2023-01-10T08:41:00.940Z,2.13
2023-01-10T08:46:03.449Z,1.93
2023-01-10T08:51:10.549Z,2.70
2023-01-10T08:56:12.948Z,1.90
2023-01-10T09:01:15.520Z,2.13
2023-01-10T09:06:17.904Z,2.20
2023-01-10T09:11:20.270Z,2.13
2023-01-10T09:16:24.157Z,2.63
2023-01-10T09:21:29.211Z,3.03
2023-01-10T09:26:31.508Z,2.30
2023-01-10T09:31:33.877Z,2.20
2023-01-10T09:36:37.334Z,2.17
2023-01-10T09:41:57.753Z,2.40
2023-01-10T09:47:43.619Z,2.80
2023-01-10T09:52:52.936Z,3.10
2023-01-10T09:57:59.505Z,2.30
2023-01-10T10:03:10.727Z,5.00
2023-01-10T10:08:18.369Z,2.60
2023-01-10T10:13:54.647Z,2.60
2023-01-10T10:19:46.278Z,2.50
2023-01-10T10:25:19.788Z,2.60
2023-01-10T10:30:35.524Z,2.10
2023-01-10T10:35:47.787Z,2.70
2023-01-10T10:40:53.011Z,2.23
2023-01-10T10:46:02.445Z,2.40
2023-01-10T10:51:42.825Z,2.27
2023-01-10T10:56:45.854Z,2.57
2023-01-10T11:01:51.046Z,2.07
2023-01-10T11:06:53.784Z,2.10
2023-01-10T11:11:57.053Z,2.23
2023-01-10T11:17:27.589Z,3.67
2023-01-10T11:22:40.138Z,2.37
2023-01-10T11:27:53.711Z,1.50
2023-01-10T11:33:03.549Z,2.40
2023-01-10T11:38:22.235Z,2.40
2023-01-10T11:43:36.463Z,1.90
2023-01-10T11:49:05.613Z,2.03
2023-01-10T11:54:20.467Z,1.77
2023-01-10T11:59:24.543Z,2.10
2023-01-10T12:04:34.034Z,1.63
2023-01-10T12:09:48.010Z,1.70
2023-01-10T12:14:51.769Z,2.20
2023-01-10T12:19:58.809Z,2.07
2023-01-10T12:25:06.437Z,1.63
2023-01-10T12:30:33.978Z,1.50
2023-01-10T12:35:45.791Z,1.63
2023-01-10T16:56:04.929Z,2.00
2023-01-10T17:01:09.243Z,2.60
2023-01-10T17:06:13.698Z,2.30
2023-01-10T17:11:21.905Z,1.90
2023-01-10T17:16:24.227Z,2.00
2023-01-10T17:21:27.119Z,1.80
2023-01-10T17:26:29.211Z,1.80
2023-01-10T17:31:31.359Z,2.10
2023-01-10T17:36:38.555Z,1.70
2023-01-10T17:41:40.708Z,1.70
2023-01-10T17:46:43.016Z,1.57
2023-01-10T17:51:45.337Z,1.10
2023-01-10T17:56:48.019Z,1.40
2023-01-10T18:01:50.288Z,1.37
2023-01-10T18:06:52.514Z,1.30
2023-01-10T18:11:54.628Z,1.60
2023-01-10T18:16:56.843Z,2.63
2023-01-10T18:21:59.027Z,1.60
2023-01-10T18:27:01.157Z,2.10
2023-01-10T18:32:03.471Z,2.17
2023-01-10T18:37:05.743Z,1.10
2023-01-10T18:42:07.929Z,1.13
2023-01-10T18:47:10.239Z,1.43
2023-01-10T18:52:12.364Z,1.20
2023-01-10T18:57:15.246Z,1.23
2023-01-10T19:02:17.616Z,1.00
2023-01-10T19:07:19.779Z,1.10
2023-01-10T19:12:22.125Z,1.57
2023-01-10T19:17:25.235Z,1.40
2023-01-10T19:22:27.563Z,1.27
2023-01-10T19:27:29.747Z,0.87
2023-01-10T19:32:35.084Z,1.27
2023-01-10T19:37:37.212Z,0.90
2023-01-10T19:42:39.494Z,1.20
2023-01-10T19:47:41.631Z,1.00
2023-01-10T19:52:43.875Z,1.30
2023-01-10T19:57:46.014Z,1.03
2023-01-10T20:02:48.388Z,3.20
2023-01-10T20:07:52.176Z,1.13
2023-01-10T20:12:54.304Z,1.10
2023-01-10T20:17:56.429Z,1.93
2023-01-10T20:22:58.625Z,0.93
2023-01-10T20:28:00.888Z,1.07
2023-01-10T20:33:03.078Z,1.20
2023-01-10T20:38:07.348Z,0.90
2023-01-10T20:43:09.658Z,1.07
2023-01-10T20:48:11.988Z,0.90
2023-01-10T20:53:15.664Z,1.33
2023-01-10T20:58:18.059Z,0.97
2023-01-10T21:03:20.349Z,1.30
2023-01-10T21:08:23.304Z,0.90
2023-01-10T21:13:26.554Z,1.00
2023-01-10T21:18:35.678Z,1.40
2023-01-10T21:23:38.145Z,1.00
2023-01-10T21:28:46.495Z,1.00
2023-01-10T21:33:49.691Z,0.80
2023-01-10T21:38:53.091Z,0.97
2023-01-10T21:43:55.337Z,1.30
2023-01-10T21:48:57.697Z,1.10
2023-01-10T21:54:00.109Z,1.53
2023-01-10T21:59:02.416Z,1.00
2023-01-10T22:04:04.876Z,0.97
2023-01-10T22:09:07.455Z,2.00
2023-01-10T22:14:12.911Z,0.90
2023-01-10T22:19:15.336Z,1.27
2023-01-10T22:24:17.802Z,1.00
2023-01-10T22:29:20.777Z,0.97
2023-01-10T22:34:23.666Z,1.10
2023-01-10T22:39:26.251Z,1.40
2023-01-10T22:44:28.936Z,0.70
2023-01-10T22:49:31.242Z,0.70
2023-01-10T22:54:33.960Z,1.00
2023-01-10T22:59:37.236Z,1.00
2023-01-10T23:04:39.504Z,0.70
2023-01-10T23:09:41.858Z,0.90
2023-01-10T23:14:47.286Z,0.87
2023-01-10T23:19:49.644Z,0.83
2023-01-10T23:24:53.167Z,0.70
2023-01-10T23:29:55.547Z,0.93
2023-01-10T23:34:57.866Z,0.77
2023-01-10T23:40:00.292Z,0.70
2023-01-10T23:45:02.704Z,0.87
2023-01-10T23:50:05.734Z,0.60
2023-01-10T23:55:08.735Z,1.20
